Time;durP1;ratioP1;P1;durP2;ratioP2;P2;SDS_P1;SDS_P2;PMS_P1;PMS_P2;Temp;Humidity;BMP_temperature;BMP_pressure;BME280_temperature;BME280_humidity;BME280_pressure;Samples;Min_cycle;Max_cycle;Signal;HPM_P1;HPM_P2
2023/04/05 00:01:14;;;;;;;10.10;5.10;;;;;;;-143.48;67.77;118439.88;5055646;28;20029;-68
2023/04/05 00:03:41;;;;;;;10.35;5.00;;;;;;;-143.48;68.58;118439.88;5055542;28;20057;-68
2023/04/05 00:06:06;;;;;;;11.77;5.20;;;;;;;-143.48;69.14;118439.88;5055581;28;20029;-68
2023/04/05 00:08:32;;;;;;;13.00;5.30;;;;;;;-143.48;68.83;118439.88;5037905;28;20373;-67
2023/04/05 00:10:57;;;;;;;13.52;5.70;;;;;;;-143.48;68.98;118439.88;5037592;28;20059;-68
2023/04/05 00:13:22;;;;;;;13.70;5.45;;;;;;;-143.48;70.08;118439.88;5055632;28;20119;-67
2023/04/05 00:15:48;;;;;;;10.63;5.30;;;;;;;-143.48;68.67;118439.88;5037456;28;20503;-68
2023/04/05 00:18:23;;;;;;;9.90;4.97;;;;;;;-143.48;69.24;118439.88;5037332;28;20465;-67
2023/04/05 00:20:52;;;;;;;8.15;5.00;;;;;;;-143.48;69.40;118439.88;5037178;28;20029;-67
2023/04/05 00:23:19;;;;;;;11.85;5.57;;;;;;;-143.48;69.39;118439.88;5055263;28;20552;-67
2023/04/05 00:25:45;;;;;;;8.93;5.40;;;;;;;-143.48;69.30;118439.88;5055214;28;20468;-68
2023/04/05 00:28:11;;;;;;;11.35;5.10;;;;;;;-143.48;69.86;118439.88;5055127;28;20036;-68
2023/04/05 00:30:37;;;;;;;13.50;5.53;;;;;;;-143.48;69.12;118439.88;5055247;28;20546;-66
2023/04/05 00:33:02;;;;;;;8.73;4.93;;;;;;;-143.48;70.33;118439.88;5037147;28;20056;-67
2023/04/05 00:35:27;;;;;;;10.77;5.20;;;;;;;-143.48;70.18;118439.88;5055012;28;20077;-67
2023/04/05 00:37:54;;;;;;;10.52;5.60;;;;;;;-143.48;70.09;118439.88;5037157;28;20465;-67
2023/04/05 00:40:19;;;;;;;14.13;5.93;;;;;;;-143.48;70.43;118439.88;5054742;28;20582;-68
2023/04/05 00:42:45;;;;;;;10.05;5.03;;;;;;;-143.48;70.80;118439.88;5036961;28;20048;-67
2023/04/05 00:45:10;;;;;;;10.85;5.25;;;;;;;-143.48;71.28;118439.88;5037068;28;20120;-68
2023/04/05 00:47:36;;;;;;;13.45;5.45;;;;;;;-143.48;71.20;118439.88;5037002;28;20025;-67
2023/04/05 00:50:02;;;;;;;11.38;5.28;;;;;;;-143.48;71.16;118439.88;5054828;28;20033;-68
2023/04/05 00:52:29;;;;;;;9.45;5.22;;;;;;;-143.48;70.98;118439.88;5036804;28;20021;-67
2023/04/05 00:54:55;;;;;;;13.52;5.35;;;;;;;-143.48;71.18;118439.88;5054678;28;20021;-68
2023/04/05 00:57:21;;;;;;;15.70;5.60;;;;;;;-143.48;71.22;118439.88;5054707;28;20044;-68
2023/04/05 00:59:46;;;;;;;17.08;5.50;;;;;;;-143.48;71.82;118439.88;5054597;28;20017;-68
2023/04/05 01:02:17;;;;;;;9.95;5.40;;;;;;;-143.48;72.52;118439.88;5054738;28;20055;-68
2023/04/05 01:04:48;;;;;;;12.57;5.55;;;;;;;-143.48;72.34;118439.88;5036753;28;20112;-68
2023/04/05 01:07:30;;;;;;;8.82;4.90;;;;;;;-143.48;72.70;118439.88;5036829;28;20028;-67
2023/04/05 01:09:57;;;;;;;12.00;5.60;;;;;;;-143.48;72.91;118439.88;5036838;28;20025;-68
2023/04/05 01:12:27;;;;;;;11.60;5.63;;;;;;;-143.48;72.68;118439.88;5055017;28;20497;-67
2023/04/05 01:14:54;;;;;;;12.65;5.82;;;;;;;-143.48;73.17;118439.88;5055040;28;20051;-67
2023/04/05 01:17:22;;;;;;;12.30;5.95;;;;;;;-143.48;73.38;118439.88;5059370;28;20056;-68
2023/04/05 01:19:58;;;;;;;12.85;5.88;;;;;;;-143.48;72.93;118439.88;5061252;28;20435;-68
2023/04/05 01:22:36;;;;;;;14.68;5.70;;;;;;;-143.48;72.73;118439.88;5061678;28;20047;-68
2023/04/05 01:25:41;;;;;;;11.48;5.30;;;;;;;-143.48;72.63;118439.88;5061343;28;20052;-68
2023/04/05 01:28:40;;;;;;;12.70;5.68;;;;;;;-143.48;72.75;118439.88;5061425;28;20044;-68
2023/04/05 01:31:41;;;;;;;12.23;5.50;;;;;;;-143.48;73.04;118439.88;5037116;28;20104;-68
2023/04/05 01:34:30;;;;;;;12.52;6.07;;;;;;;-143.48;73.34;118439.88;5054776;28;20025;-68
2023/04/05 01:37:00;;;;;;;12.90;5.70;;;;;;;-143.48;73.03;118439.88;5036587;28;20119;-68
2023/04/05 01:39:27;;;;;;;11.63;6.05;;;;;;;-143.48;73.92;118439.88;5053879;28;20025;-68
2023/04/05 01:41:58;;;;;;;19.20;6.43;;;;;;;-143.48;74.13;118439.88;5053928;28;20036;-68
2023/04/05 01:44:23;;;;;;;13.60;5.97;;;;;;;-143.48;73.97;118439.88;5054059;28;20024;-68
2023/04/05 01:46:48;;;;;;;10.43;5.93;;;;;;;-143.48;73.55;118439.88;5053677;28;20032;-68
2023/04/05 01:49:14;;;;;;;15.30;5.85;;;;;;;-143.48;74.01;118439.88;5035631;28;20045;-68
2023/04/05 01:51:40;;;;;;;14.00;6.18;;;;;;;-143.48;73.68;118439.88;5053601;28;20024;-68
2023/04/05 01:54:06;;;;;;;12.23;5.35;;;;;;;-143.48;74.40;118439.88;5035644;28;20020;-68
2023/04/05 01:56:31;;;;;;;14.55;6.13;;;;;;;-143.48;74.10;118439.88;5053723;28;20476;-68
2023/04/05 01:58:57;;;;;;;11.95;6.15;;;;;;;-143.48;74.47;118439.88;5053570;28;20013;-68
2023/04/05 02:01:22;;;;;;;10.45;5.82;;;;;;;-143.48;74.87;118439.88;5053342;28;20086;-68
2023/04/05 02:03:47;;;;;;;15.85;6.53;;;;;;;-143.48;75.43;118439.88;5053309;28;20029;-67
2023/04/05 02:06:12;;;;;;;16.42;6.28;;;;;;;-143.48;75.80;118439.88;5035710;28;20033;-68
2023/04/05 02:08:38;;;;;;;12.70;6.35;;;;;;;-143.48;75.69;118439.88;5053324;28;20056;-68
2023/04/05 02:11:03;;;;;;;13.68;6.53;;;;;;;-143.48;75.46;118439.88;5053275;28;20469;-68
2023/04/05 02:13:28;;;;;;;12.02;6.60;;;;;;;-143.48;75.45;118439.88;5053344;28;20111;-68
2023/04/05 02:15:54;;;;;;;11.70;6.47;;;;;;;-143.48;75.82;118439.88;5053299;28;20107;-68
2023/04/05 02:18:28;;;;;;;11.07;6.22;;;;;;;-143.48;76.08;118439.88;5053146;28;20028;-67
2023/04/05 02:21:00;;;;;;;16.83;6.57;;;;;;;-143.48;75.88;118439.88;5053038;28;20021;-67
2023/04/05 02:23:26;;;;;;;12.55;6.25;;;;;;;-143.48;76.46;118439.88;5053189;28;20060;-68
2023/04/05 02:25:52;;;;;;;11.52;6.82;;;;;;;-143.48;75.51;118439.88;5053076;28;20021;-68
2023/04/05 02:28:17;;;;;;;16.48;6.47;;;;;;;-143.48;75.70;118439.88;5053017;28;20089;-67
2023/04/05 02:30:42;;;;;;;13.93;6.22;;;;;;;-143.48;76.27;118439.88;5035105;28;20388;-69
2023/04/05 02:33:09;;;;;;;12.90;6.18;;;;;;;-143.48;76.25;118439.88;5035088;28;20029;-67
2023/04/05 02:35:35;;;;;;;12.32;6.78;;;;;;;-143.48;75.80;118439.88;5053058;28;20040;-67
2023/04/05 02:38:00;;;;;;;12.88;6.05;;;;;;;-143.48;76.34;118439.88;5052983;28;20098;-67
2023/04/05 02:40:26;;;;;;;13.43;6.57;;;;;;;-143.48;76.08;118439.88;5034760;28;20065;-68
2023/04/05 02:42:51;;;;;;;11.35;6.05;;;;;;;-143.48;76.31;118439.88;5052931;28;20033;-67
2023/04/05 02:45:17;;;;;;;13.18;6.90;;;;;;;-143.48;76.54;118439.88;5056049;28;20028;-68
2023/04/05 02:47:42;;;;;;;14.40;6.25;;;;;;;-143.48;76.28;118439.88;5039140;28;20455;-68
2023/04/05 02:50:07;;;;;;;13.55;6.55;;;;;;;-143.48;76.56;118439.88;5057188;28;20020;-68
2023/04/05 02:52:33;;;;;;;15.52;6.65;;;;;;;-143.48;76.10;118439.88;5056886;28;20032;-67
2023/04/05 02:54:58;;;;;;;16.77;7.00;;;;;;;-143.48;76.48;118439.88;5056962;28;20492;-68
2023/04/05 02:57:23;;;;;;;14.07;6.70;;;;;;;-143.48;76.30;118439.88;5056895;28;20108;-68
2023/04/05 02:59:49;;;;;;;12.23;6.28;;;;;;;-143.48;76.59;118439.88;5038846;28;20439;-69
2023/04/05 03:02:15;;;;;;;14.25;7.30;;;;;;;-143.48;77.15;118439.88;5056874;28;20376;-67
2023/04/05 03:04:40;;;;;;;17.83;7.25;;;;;;;-143.48;76.93;118439.88;5056675;28;20017;-68
2023/04/05 03:07:06;;;;;;;12.65;6.53;;;;;;;-143.48;76.97;118439.88;5038810;28;20024;-66
2023/04/05 03:09:32;;;;;;;17.95;7.05;;;;;;;-143.48;77.15;118439.88;5056655;28;20430;-67
2023/04/05 03:12:02;;;;;;;15.75;6.85;;;;;;;-143.48;77.68;118439.88;5056573;28;20021;-67
2023/04/05 03:14:28;;;;;;;12.93;7.00;;;;;;;-143.48;77.47;118439.88;5038581;28;20053;-67
2023/04/05 03:16:53;;;;;;;12.10;6.88;;;;;;;-143.48;77.79;118439.88;5038662;28;20451;-68
2023/04/05 03:19:21;;;;;;;14.27;6.30;;;;;;;-143.48;77.19;118439.88;5056464;28;20025;-68
2023/04/05 03:21:49;;;;;;;16.33;7.05;;;;;;;-143.48;77.41;118439.88;5055986;28;20108;-69
2023/04/05 03:24:15;;;;;;;14.48;6.60;;;;;;;-143.48;77.95;118439.88;5056290;28;20104;-68
2023/04/05 03:26:42;;;;;;;12.63;7.03;;;;;;;-143.48;78.14;118439.88;5056303;28;20141;-66
2023/04/05 03:29:08;;;;;;;16.52;7.80;;;;;;;-143.48;78.56;118439.88;5038273;28;20021;-67
2023/04/05 03:31:33;;;;;;;12.98;6.57;;;;;;;-143.48;78.68;118439.88;5054756;28;20039;-68
2023/04/05 03:33:58;;;;;;;13.45;6.85;;;;;;;-143.48;78.56;118439.88;5054083;28;20104;-67
2023/04/05 03:36:24;;;;;;;13.18;6.95;;;;;;;-143.48;78.46;118439.88;5036298;28;20025;-68
2023/04/05 03:38:50;;;;;;;15.60;7.13;;;;;;;-143.48;78.55;118439.88;5054331;28;20501;-68
2023/04/05 03:41:16;;;;;;;14.63;7.15;;;;;;;-143.48;78.20;118439.88;5036089;28;20033;-67
2023/04/05 03:43:41;;;;;;;16.00;7.13;;;;;;;-143.48;78.02;118439.88;5036392;28;20028;-67
2023/04/05 03:46:06;;;;;;;16.17;7.50;;;;;;;-143.48;77.83;118439.88;5037382;28;20021;-67
2023/04/05 03:48:31;;;;;;;17.30;6.82;;;;;;;-143.48;79.03;118439.88;5055845;28;20025;-67
2023/04/05 03:50:57;;;;;;;14.00;7.30;;;;;;;-143.48;78.77;118439.88;5037906;28;20064;-67
2023/04/05 03:53:23;;;;;;;13.82;7.03;;;;;;;-143.48;78.43;118439.88;5037922;28;20027;-67
2023/04/05 03:55:49;;;;;;;14.57;7.85;;;;;;;-143.48;78.50;118439.88;5055293;28;20051;-67
2023/04/05 03:58:16;;;;;;;15.40;7.60;;;;;;;-143.48;78.77;118439.88;5037920;28;20111;-67
2023/04/05 04:00:41;;;;;;;14.32;7.20;;;;;;;-143.48;79.53;118439.88;5055749;28;20057;-66
2023/04/05 04:03:06;;;;;;;17.92;7.95;;;;;;;-143.48;78.82;118439.88;5055640;28;20059;-71
2023/04/05 04:05:37;;;;;;;15.00;7.28;;;;;;;-143.48;79.03;118439.88;5055580;28;20503;-68
2023/04/05 04:08:03;;;;;;;15.95;7.70;;;;;;;-143.48;79.46;118439.88;5037710;28;20029;-67
2023/04/05 04:10:29;;;;;;;15.52;7.60;;;;;;;-143.48;78.88;118439.88;5055456;28;20361;-67
2023/04/05 04:12:54;;;;;;;18.50;7.80;;;;;;;-143.48;79.09;118439.88;5055335;28;20025;-68
2023/04/05 04:15:19;;;;;;;16.08;7.28;;;;;;;-143.48;78.99;118439.88;5055390;28;20114;-68
2023/04/05 04:17:45;;;;;;;16.67;7.57;;;;;;;-143.48;78.66;118439.88;5055402;28;20128;-68
2023/04/05 04:20:11;;;;;;;20.45;8.20;;;;;;;-143.48;79.07;118439.88;5055124;28;20476;-67
2023/04/05 04:22:38;;;;;;;20.35;8.00;;;;;;;-143.48;79.18;118439.88;5037351;28;20021;-67
2023/04/05 04:25:09;;;;;;;15.25;7.18;;;;;;;-143.48;80.13;118439.88;5055113;28;20025;-67
2023/04/05 04:27:40;;;;;;;15.88;8.00;;;;;;;-143.48;80.79;118439.88;5037447;28;20056;-67
2023/04/05 04:30:09;;;;;;;13.27;7.65;;;;;;;-143.48;80.05;118439.88;5055090;28;20028;-68
2023/04/05 04:33:18;;;;;;;15.07;7.63;;;;;;;-143.48;79.85;118439.88;5055127;28;20035;-67
2023/04/05 04:35:28;;;;;;;13.27;7.70;;;;;;;-143.48;80.24;118439.88;5044255;28;20515;-67
2023/04/05 04:37:58;;;;;;;21.40;8.45;;;;;;;-143.48;80.00;118439.88;5055042;28;20028;-68
2023/04/05 04:40:31;;;;;;;23.80;8.02;;;;;;;-143.48;80.20;118439.88;5054702;28;20488;-67
2023/04/05 04:42:58;;;;;;;20.33;7.57;;;;;;;-143.48;79.98;118439.88;5036955;28;20439;-68
2023/04/05 04:45:24;;;;;;;14.55;8.07;;;;;;;-143.48;79.98;118439.88;5054810;28;20275;-67
2023/04/05 04:47:52;;;;;;;16.60;8.50;;;;;;;-143.48;80.04;118439.88;5054813;28;20025;-68
2023/04/05 04:50:19;;;;;;;20.67;7.93;;;;;;;-143.48;80.13;118439.88;5054808;28;20025;-68
2023/04/05 04:52:45;;;;;;;18.08;8.40;;;;;;;-143.48;79.50;118439.88;5054735;28;20392;-68
2023/04/05 04:55:13;;;;;;;14.05;7.82;;;;;;;-143.48;79.37;118439.88;5054681;28;20029;-66
2023/04/05 04:57:40;;;;;;;18.10;8.00;;;;;;;-143.48;80.00;118439.88;5054631;28;20119;-66
2023/04/05 05:00:13;;;;;;;17.98;8.43;;;;;;;-143.48;79.51;118439.88;5036684;28;20021;-68
2023/04/05 05:02:39;;;;;;;19.60;8.38;;;;;;;-143.48;79.80;118439.88;5054554;28;20025;-67
2023/04/05 05:05:06;;;;;;;15.05;7.72;;;;;;;-143.48;79.82;118439.88;5054437;28;20051;-68
2023/04/05 05:07:31;;;;;;;19.92;8.13;;;;;;;-143.48;79.45;118439.88;5053633;28;20024;-68
2023/04/05 05:09:57;;;;;;;18.05;8.20;;;;;;;-143.48;79.72;118439.88;5054401;28;20071;-68
2023/04/05 05:12:22;;;;;;;24.77;7.90;;;;;;;-143.48;79.72;118439.88;5054378;28;20530;-68
2023/04/05 05:14:47;;;;;;;15.75;7.70;;;;;;;-143.48;79.53;118439.88;5054342;28;20032;-68
2023/04/05 05:17:13;;;;;;;18.35;7.90;;;;;;;-143.48;78.87;118439.88;5054132;28;20040;-67
2023/04/05 05:19:38;;;;;;;15.43;8.13;;;;;;;-143.48;79.16;118439.88;5054267;28;20049;-67
2023/04/05 05:22:03;;;;;;;15.38;8.18;;;;;;;-143.48;79.20;118439.88;5054198;28;20021;-67
2023/04/05 05:24:29;;;;;;;16.73;8.77;;;;;;;-143.48;79.29;118439.88;5036361;28;20115;-67
2023/04/05 05:26:54;;;;;;;20.65;8.95;;;;;;;-143.48;78.88;118439.88;5054068;28;20099;-67
2023/04/05 05:29:19;;;;;;;17.50;8.32;;;;;;;-143.48;78.68;118439.88;5054345;28;20052;-67
2023/04/05 05:31:45;;;;;;;16.48;8.38;;;;;;;-143.48;78.46;118439.88;5054333;28;20362;-66
2023/04/05 05:34:10;;;;;;;15.55;8.38;;;;;;;-143.48;77.96;118439.88;5054216;28;20055;-67
2023/04/05 05:36:36;;;;;;;16.02;8.25;;;;;;;-143.48;78.31;118439.88;5036965;28;20043;-67
2023/04/05 05:39:04;;;;;;;16.80;8.77;;;;;;;-143.48;77.75;118439.88;5060107;28;20033;-68
2023/04/05 05:41:29;;;;;;;18.83;10.43;;;;;;;-143.48;78.12;118439.88;5060445;28;20061;-66
2023/04/05 05:43:54;;;;;;;18.77;8.25;;;;;;;-143.48;77.12;118439.88;5042869;28;20499;-67
2023/04/05 05:46:20;;;;;;;16.17;8.27;;;;;;;-143.48;77.26;118439.88;5060948;28;20025;-67
2023/04/05 05:48:45;;;;;;;19.63;8.68;;;;;;;-143.48;76.73;118439.88;5037947;28;20114;-67
2023/04/05 05:51:11;;;;;;;19.88;8.48;;;;;;;-143.48;76.72;118439.88;5054600;28;20012;-68
2023/04/05 05:53:37;;;;;;;16.00;8.00;;;;;;;-143.48;76.85;118439.88;5036424;28;20029;-67
2023/04/05 05:56:02;;;;;;;18.15;8.90;;;;;;;-143.48;76.20;118439.88;5054078;28;20079;-68
2023/04/05 05:58:27;;;;;;;20.77;8.40;;;;;;;-143.48;76.29;118439.88;5053845;28;20075;-67
2023/04/05 06:00:55;;;;;;;15.80;8.02;;;;;;;-143.48;75.72;118439.88;5035416;28;20048;-67
2023/04/05 06:03:28;;;;;;;18.25;8.30;;;;;;;-143.48;75.44;118439.88;5035590;28;20017;-68
2023/04/05 06:05:55;;;;;;;19.48;9.30;;;;;;;-143.48;74.39;118439.88;5053227;28;20435;-67
2023/04/05 06:08:21;;;;;;;20.13;8.75;;;;;;;-143.48;74.61;118439.88;5053170;28;20488;-67
2023/04/05 06:10:48;;;;;;;16.80;8.70;;;;;;;-143.48;73.19;118439.88;5035241;28;20120;-68
2023/04/05 06:13:13;;;;;;;16.63;8.68;;;;;;;-143.48;73.32;118439.88;5035425;28;20021;-68
2023/04/05 06:15:38;;;;;;;18.45;8.48;;;;;;;-143.48;72.46;118439.88;5053037;28;20025;-66
2023/04/05 06:18:04;;;;;;;20.02;8.30;;;;;;;-143.48;71.58;118439.88;5052857;28;20025;-67
2023/04/05 06:20:29;;;;;;;15.38;8.43;;;;;;;-143.48;71.43;118439.88;5053099;28;20021;-67
2023/04/05 06:22:55;;;;;;;17.60;8.30;;;;;;;-143.48;71.76;118439.88;5035757;28;20078;-67
2023/04/05 06:25:20;;;;;;;20.63;8.23;;;;;;;-143.48;70.84;118439.88;5053118;28;20104;-67
2023/04/05 06:27:45;;;;;;;17.23;8.10;;;;;;;-143.48;70.36;118439.88;5053000;28;20104;-68
2023/04/05 06:30:11;;;;;;;16.73;8.43;;;;;;;-143.48;70.63;118439.88;5034983;28;20116;-66
2023/04/05 06:32:36;;;;;;;21.80;8.00;;;;;;;-143.48;70.18;118439.88;5052826;28;20112;-68
2023/04/05 06:35:02;;;;;;;16.73;8.20;;;;;;;-143.48;70.11;118439.88;5052914;28;20032;-68
2023/04/05 06:37:29;;;;;;;17.35;8.00;;;;;;;-143.48;70.18;118439.88;5034857;28;20455;-68
2023/04/05 06:39:54;;;;;;;17.52;8.48;;;;;;;-143.48;70.42;118439.88;5052717;28;20511;-68
2023/04/05 06:42:19;;;;;;;14.88;8.50;;;;;;;-143.48;69.33;118439.88;5052867;28;20025;-67
2023/04/05 06:44:44;;;;;;;16.25;8.38;;;;;;;-143.48;69.03;118439.88;5052777;28;20186;-68
2023/04/05 06:47:10;;;;;;;18.38;8.43;;;;;;;-143.48;69.68;118439.88;5034879;28;20040;-67
2023/04/05 06:49:35;;;;;;;22.45;8.88;;;;;;;-143.48;69.15;118439.88;5052839;28;20384;-67
2023/04/05 06:52:01;;;;;;;15.43;8.40;;;;;;;-143.48;68.83;118439.88;5034931;28;20108;-67
2023/04/05 06:54:27;;;;;;;15.25;8.27;;;;;;;-143.48;67.68;118439.88;5052538;28;20047;-67
2023/04/05 06:56:52;;;;;;;14.25;8.10;;;;;;;-143.48;67.65;118439.88;5052387;28;20028;-67
2023/04/05 06:59:17;;;;;;;18.83;8.40;;;;;;;-143.48;65.41;118439.88;5034393;28;20021;-68
2023/04/05 07:01:43;;;;;;;14.25;7.90;;;;;;;-143.48;56.60;118439.88;5034249;28;20064;-67
2023/04/05 07:04:08;;;;;;;17.15;7.90;;;;;;;-143.48;48.21;118439.88;5034320;28;20388;-67
2023/04/05 07:06:34;;;;;;;16.02;7.95;;;;;;;-143.48;44.92;118439.88;5052210;28;20132;-68
2023/04/05 07:09:00;;;;;;;12.32;7.75;;;;;;;-143.48;45.14;118439.88;5034513;28;20013;-68
2023/04/05 07:11:26;;;;;;;13.77;7.60;;;;;;;-143.48;43.82;118439.88;5052378;28;20024;-68
2023/04/05 07:13:51;;;;;;;12.13;7.60;;;;;;;-143.48;43.45;118439.88;5052709;28;20025;-68
2023/04/05 07:16:21;;;;;;;13.75;7.35;;;;;;;-143.48;41.47;118439.88;5034638;28;20070;-68
2023/04/05 07:18:46;;;;;;;14.75;7.18;;;;;;;-143.48;41.24;118439.88;5052498;28;20025;-67
2023/04/05 07:21:12;;;;;;;14.35;6.93;;;;;;;-143.48;40.40;118439.88;5052578;28;20103;-67
2023/04/05 07:23:37;;;;;;;11.35;6.95;;;;;;;-143.48;40.96;118439.88;5052585;28;20040;-67
2023/04/05 07:26:07;;;;;;;10.65;7.05;;;;;;;-143.48;40.02;118439.88;5052521;28;20435;-67
2023/04/05 07:28:34;;;;;;;14.02;6.75;;;;;;;-143.48;40.08;118439.88;5034560;28;20017;-67
2023/04/05 07:31:00;;;;;;;15.60;6.95;;;;;;;-143.48;38.00;118439.88;5054725;28;20066;-68
2023/04/05 07:33:26;;;;;;;11.45;6.70;;;;;;;-143.48;39.76;118439.88;5056289;28;20032;-68
2023/04/05 07:35:55;;;;;;;9.18;6.47;;;;;;;-143.48;38.68;118439.88;5056195;28;20480;-68
2023/04/05 07:38:21;;;;;;;10.80;6.85;;;;;;;-143.48;39.09;118439.88;5056126;28;20028;-68
2023/04/05 07:40:50;;;;;;;9.52;6.43;;;;;;;-143.48;37.64;118439.88;5055834;28;20044;-67
2023/04/05 07:43:18;;;;;;;11.88;7.10;;;;;;;-143.48;38.33;118439.88;5038226;28;20025;-68
2023/04/05 07:45:44;;;;;;;9.10;6.00;;;;;;;-143.48;37.77;118439.88;5038141;28;20119;-67
2023/04/05 07:48:09;;;;;;;9.90;6.15;;;;;;;-143.48;36.40;118439.88;5055938;28;20053;-67
2023/04/05 07:50:35;;;;;;;10.93;6.10;;;;;;;-143.48;37.46;118439.88;5055734;28;20447;-67
2023/04/05 07:53:01;;;;;;;12.80;6.05;;;;;;;-143.48;37.94;118439.88;5055907;28;20100;-67
2023/04/05 07:55:26;;;;;;;9.43;6.20;;;;;;;-143.48;37.46;118439.88;5055998;28;20063;-67
2023/04/05 07:57:52;;;;;;;10.32;6.18;;;;;;;-143.48;35.58;118439.88;5055901;28;20056;-67
2023/04/05 08:00:18;;;;;;;10.82;6.38;;;;;;;-143.48;36.10;118439.88;5037636;28;20040;-68
2023/04/05 08:02:44;;;;;;;9.68;6.25;;;;;;;-143.48;36.10;118439.88;5055590;28;20028;-67
2023/04/05 08:05:09;;;;;;;10.95;6.40;;;;;;;-143.48;36.43;118439.88;5055618;28;20074;-67
2023/04/05 08:07:34;;;;;;;14.60;6.15;;;;;;;-143.48;35.60;118439.88;5037733;28;20032;-68
2023/04/05 08:10:00;;;;;;;11.10;6.07;;;;;;;-143.48;36.12;118439.88;5037720;28;20025;-68
2023/04/05 08:12:26;;;;;;;10.73;6.15;;;;;;;-143.48;35.16;118439.88;5055506;28;20021;-68
2023/04/05 08:14:51;;;;;;;8.48;6.03;;;;;;;-143.48;35.98;118439.88;5037673;28;20021;-67
2023/04/05 08:17:16;;;;;;;9.50;5.90;;;;;;;-143.48;35.65;118439.88;5037515;28;20029;-67
2023/04/05 08:19:42;;;;;;;10.65;6.40;;;;;;;-143.48;34.52;118439.88;5055287;28;20028;-68
2023/04/05 08:22:07;;;;;;;8.80;5.70;;;;;;;-143.48;34.50;118439.88;5036905;28;20029;-68
2023/04/05 08:24:32;;;;;;;11.57;6.07;;;;;;;-143.48;35.99;118439.88;5037335;28;20029;-68
2023/04/05 08:26:58;;;;;;;10.25;6.40;;;;;;;-143.48;33.67;118439.88;5055191;28;20111;-68
2023/04/05 08:29:23;;;;;;;8.63;5.68;;;;;;;-143.48;34.47;118439.88;5053809;28;20028;-68
2023/04/05 08:31:49;;;;;;;12.38;6.10;;;;;;;-143.48;34.10;118439.88;5053155;28;20536;-69
2023/04/05 08:34:14;;;;;;;10.32;5.93;;;;;;;-143.48;33.53;118439.88;5035053;28;20029;-69
2023/04/05 08:36:39;;;;;;;8.95;5.68;;;;;;;-143.48;33.24;118439.88;5036288;28;20422;-67
2023/04/05 08:39:05;;;;;;;10.18;5.97;;;;;;;-143.48;34.64;118439.88;5053932;28;20071;-69
2023/04/05 08:41:35;;;;;;;8.30;5.32;;;;;;;-143.48;32.93;118439.88;5035786;28;20049;-68
2023/04/05 08:44:03;;;;;;;12.00;5.60;;;;;;;-143.48;31.96;118439.88;5054066;28;20021;-68
2023/04/05 08:46:34;;;;;;;11.75;6.07;;;;;;;-143.48;32.71;118439.88;5036972;28;20107;-68
2023/04/05 08:49:03;;;;;;;12.85;6.00;;;;;;;-143.48;31.74;118439.88;5053506;28;20395;-68
2023/04/05 08:51:29;;;;;;;11.77;5.57;;;;;;;-143.48;31.37;118439.88;5054759;28;20021;-68
2023/04/05 08:53:55;;;;;;;12.25;5.57;;;;;;;-143.48;29.88;118439.88;5054735;28;20035;-68
2023/04/05 08:56:24;;;;;;;23.45;5.88;;;;;;;-143.48;29.70;118439.88;5054675;28;20476;-68
2023/04/05 08:59:11;;;;;;;16.92;6.35;;;;;;;-143.48;30.45;118439.88;5054144;28;20377;-68
2023/04/05 09:01:40;;;;;;;17.30;6.00;;;;;;;-143.48;29.88;118439.88;5054125;28;20025;-69
2023/04/05 09:04:10;;;;;;;8.38;4.82;;;;;;;-143.48;29.81;118439.88;5036400;28;20028;-68
2023/04/05 09:06:36;;;;;;;7.28;4.78;;;;;;;-143.48;30.85;118439.88;5054489;28;20021;-68
2023/04/05 09:09:05;;;;;;;8.52;5.05;;;;;;;-143.48;31.15;118439.88;5054397;28;20116;-68
2023/04/05 09:11:32;;;;;;;11.65;5.30;;;;;;;-143.48;32.17;118439.88;5054462;28;20025;-68
2023/04/05 09:13:57;;;;;;;8.85;5.30;;;;;;;-143.48;31.56;118439.88;5036402;28;20035;-69
2023/04/05 09:16:25;;;;;;;11.10;5.60;;;;;;;-143.48;32.14;118439.88;5054324;28;20025;-68
2023/04/05 09:18:51;;;;;;;9.55;5.35;;;;;;;-143.48;32.05;118439.88;5054489;28;20042;-67
2023/04/05 09:21:17;;;;;;;11.05;5.82;;;;;;;-143.48;32.62;118439.88;5036607;28;20108;-68
2023/04/05 09:23:52;;;;;;;11.35;5.70;;;;;;;-143.48;32.38;118439.88;5054598;28;20105;-68
2023/04/05 09:26:20;;;;;;;13.35;5.40;;;;;;;-143.48;31.59;118439.88;5054594;28;20021;-69
2023/04/05 09:28:45;;;;;;;12.00;5.70;;;;;;;-143.48;32.60;118439.88;5054483;28;20104;-68
2023/04/05 09:31:29;;;;;;;9.85;5.97;;;;;;;-143.48;33.95;118439.88;5036179;28;20539;-68
2023/04/05 09:33:57;;;;;;;9.70;5.55;;;;;;;-143.48;32.43;118439.88;5053768;28;20025;-68
2023/04/05 09:36:23;;;;;;;25.55;7.40;;;;;;;-143.48;32.25;118439.88;5054441;28;20028;-68
2023/04/05 09:38:48;;;;;;;11.30;5.80;;;;;;;-143.48;31.76;118439.88;5054067;28;20024;-68
2023/04/05 09:41:13;;;;;;;11.20;5.63;;;;;;;-143.48;32.90;118439.88;5052939;28;20041;-68
2023/04/05 09:43:42;;;;;;;10.32;6.05;;;;;;;-143.48;32.55;118439.88;5053392;28;20099;-69
2023/04/05 09:46:32;;;;;;;13.13;5.65;;;;;;;-143.48;31.86;118439.88;5035662;28;20056;-69
2023/04/05 09:49:00;;;;;;;10.25;5.45;;;;;;;-143.48;32.60;118439.88;5053435;28;20099;-68
2023/04/05 09:51:36;;;;;;;13.40;6.10;;;;;;;-143.48;32.21;118439.88;5053918;28;20020;-67
2023/04/05 09:54:05;;;;;;;11.35;5.80;;;;;;;-143.48;32.08;118439.88;5053220;28;20057;-68
2023/04/05 09:56:38;;;;;;;12.88;5.90;;;;;;;-143.48;32.15;118439.88;5053697;28;20511;-68
2023/04/05 09:59:09;;;;;;;8.75;5.13;;;;;;;-143.48;31.15;118439.88;5053799;28;20029;-68
2023/04/05 10:01:35;;;;;;;14.55;5.68;;;;;;;-143.48;31.32;118439.88;5054025;28;20036;-69
2023/04/05 10:04:01;;;;;;;12.23;5.78;;;;;;;-143.48;31.69;118439.88;5053213;28;20360;-67
2023/04/05 10:06:38;;;;;;;14.77;6.60;;;;;;;-143.48;31.24;118439.88;5053332;28;20044;-68
2023/04/05 10:09:04;;;;;;;10.68;5.70;;;;;;;-143.48;30.96;118439.88;5052645;28;20033;-69
2023/04/05 10:11:35;;;;;;;11.85;6.25;;;;;;;-143.48;31.28;118439.88;5052195;28;20021;-69
2023/04/05 10:14:02;;;;;;;9.95;5.47;;;;;;;-143.48;31.54;118439.88;5034013;28;20025;-66
2023/04/05 10:16:31;;;;;;;10.15;5.30;;;;;;;-143.48;32.91;118439.88;5052260;28;20088;-67
2023/04/05 10:18:56;;;;;;;10.55;5.65;;;;;;;-143.48;31.60;118439.88;5052383;28;20017;-66
2023/04/05 10:21:27;;;;;;;9.45;5.60;;;;;;;-143.48;31.66;118439.88;5034426;28;20492;-68
2023/04/05 10:24:07;;;;;;;10.45;5.65;;;;;;;-143.48;30.94;118439.88;5052048;28;20040;-68
2023/04/05 10:27:16;;;;;;;13.68;6.20;;;;;;;-143.48;32.51;118439.88;5053022;28;20029;-67
2023/04/05 10:29:55;;;;;;;9.73;5.53;;;;;;;-143.48;30.55;118439.88;4999026;28;20115;-67
2023/04/05 10:32:33;;;;;;;10.25;5.57;;;;;;;-143.48;31.40;118439.88;5053356;28;20017;-67
2023/04/05 10:35:10;;;;;;;12.85;5.63;;;;;;;-143.48;31.31;118439.88;5035301;28;20028;-68
2023/04/05 10:37:54;;;;;;;8.85;5.40;;;;;;;-143.48;31.20;118439.88;5053697;28;20029;-67
2023/04/05 10:40:23;;;;;;;10.43;6.00;;;;;;;-143.48;32.10;118439.88;5053180;28;20053;-67
2023/04/05 10:42:48;;;;;;;8.70;5.57;;;;;;;-143.48;30.89;118439.88;5052909;28;20059;-68
2023/04/05 10:45:18;;;;;;;15.95;5.90;;;;;;;-143.48;32.12;118439.88;5053501;28;20099;-68
2023/04/05 10:47:52;;;;;;;11.35;5.80;;;;;;;-143.48;31.33;118439.88;5053366;28;20028;-68
2023/04/05 10:50:22;;;;;;;10.02;5.80;;;;;;;-143.48;30.55;118439.88;5053313;28;20025;-68
2023/04/05 10:52:49;;;;;;;11.77;5.65;;;;;;;-143.48;31.80;118439.88;5035217;28;20025;-66
2023/04/05 10:55:16;;;;;;;10.63;5.95;;;;;;;-143.48;31.22;118439.88;5034491;28;20051;-68
2023/04/05 10:57:43;;;;;;;8.73;5.97;;;;;;;-143.48;31.71;118439.88;5051672;28;20043;-68
2023/04/05 11:00:10;;;;;;;12.55;5.97;;;;;;;-143.48;31.03;118439.88;5033745;28;20025;-68
2023/04/05 11:02:36;;;;;;;11.43;5.75;;;;;;;-143.48;32.41;118439.88;5051801;28;20029;-66
2023/04/05 11:05:05;;;;;;;9.75;5.60;;;;;;;-143.48;30.85;118439.88;5052744;28;20021;-67